ADDS METAR Data INFO
IDs: Format: Raw Decoded Include TAF

Data at: 0933 UTC 25 Jun 2018

KPAH 250853Z AUTO 02007KT 10SM SCT010 OVC015 23/21 A2993 RMK AO2 LTG DSNT NE AND NW TSB05E31 SLP130 T02280211 55002 $
KPAH 250831Z AUTO 31006KT 10SM SCT006 OVC010 23/22 A2994 RMK AO2 LTG DSNT N AND NE TSB05E31 CIG 007V011 T02330217 $
KPAH 250816Z AUTO 33007KT 290V360 10SM TS BKN005 BKN023 OVC046 23/22 A2993 RMK AO2 LTG DSNT W-NE TSB05 T02280217 $
KPAH 250805Z AUTO 10006KT 10SM TS FEW005 BKN046 OVC055 23/22 A2992 RMK AO2 LTG DSNT W-NE TSB05 T02280217 $
KPAH 250753Z AUTO VRB05KT 10SM VCTS SCT005 BKN024 OVC055 23/22 A2990 RMK AO2 LTG DSNT W-N SLP121 T02280217 $
KPAH 250748Z AUTO 10007KT 10SM VCTS SCT005 BKN029 OVC055 23/22 A2991 RMK AO2 LTG DSNT W-NE $
KPAH 250739Z AUTO 09008KT 10SM BKN005 BKN033 OVC049 23/22 A2990 RMK AO2 LTG DSNT W-NE T02280217 $
KPAH 250724Z AUTO 10005KT 9SM SCT004 BKN032 OVC070 23/22 A2991 RMK AO2 LTG DSNT W-N T02280217 $
KPAH 250653Z AUTO 09004KT 8SM BKN004 BKN023 BKN034 23/22 A2991 RMK AO2 LTG DSNT W AND NW SLP125 T02280217 $
KPAH 250553Z AUTO 10006KT 10SM FEW006 BKN024 OVC045 23/21 A2994 RMK AO2 RAE29 TSE01 SLP132 P0003 60069 T02280211 10267 20228 403000200 50000 $
KPAH 250501Z AUTO 08006KT 4SM RA BR FEW007 BKN050 OVC110 23/22 A2994 RMK AO2 LTG DSNT SW TSE01 P0002 T02280217 $
KPAH 250441Z AUTO 00000KT 2 1/2SM TSRA BR FEW026 BKN050 OVC070 23/22 A2996 RMK AO2 LTG DSNT S-W RAB20 TSB39 P0005 T02280217 $
KPAH 250353Z 00000KT 9SM VCTS FEW031 BKN090 23/22 A2995 RMK AO2 LTG DSNT ALQDS RAE33B40E49 TSE13 SLP136 P0045 T02280217 $
KPAH 250338Z 01004KT 9SM SCT026 BKN038 OVC090 23/22 A2994 RMK AO2 LTG DSNT ALQDS RAE33 TSE13 TS N-E MOV NE P0045 T02280217 $
KPAH 250323Z VRB03G16KT 3SM VCTS -RA BR FEW015 BKN028 OVC037 23/22 A2994 RMK AO2 LTG DSNT ALQDS TSE13 TS N-E MOV NE P0045 T02280217 $
KPAH 250319Z 33010KT 1 1/2SM VCTS +RA BR FEW015 BKN030 OVC037 23/22 A2995 RMK AO2 LTG DSNT ALQDS TSE13 TS N-E MOV NE P0044 T02280217 $
KPAH 250303Z 32007KT 1 3/4SM +TSRA BR SCT013 BKN035 OVC043 24/22 A2995 RMK AO2 LTG DSNT ALQDS P0008 T02390222 $
KPAH 250253Z 32008G17KT 4SM TSRA BR SCT011 BKN035 OVC070 24/22 A2994 RMK AO2 LTG DSNT ALQDS RAB24 TSB08E36B38 SLP132 TS OVHD MOV NE P0003 60011 T02390222 53007 $
KPAH 250214Z 00000KT 6SM TS BR BKN080 BKN110 25/23 A2992 RMK AO2 LTG DSNT ALQDS TSB08 TS OVHD MOV NE T02500233 $
KPAH 250153Z 00000KT 7SM VCTS SCT075 25/23 A2991 RMK AO2 LTG DSNT W-N SLP124 TS W-N MOV NE T02500233 $
KPAH 250053Z 12004KT 6SM BR FEW090 26/24 A2991 RMK AO2 LTG DSNT NE AND W RAE22 SLP124 P0008 T02560239 $
KPAH 250040Z 05003KT 7SM SCT085 26/23 A2992 RMK AO2 LTG DSNT N RAE22 P0008 T02560233 $
KPAH 250022Z 00000KT 9SM VCTS FEW032 BKN090 BKN110 26/23 A2992 RMK AO2 RAE22 TS NW MOV NE P0008 T02560233 $
KPAH 250010Z 07004KT 3SM -RA FEW042 BKN090 OVC110 26/23 A2991 RMK AO2 P0007 T02560228 $
KPAH 242359Z 14003KT 1 3/4SM +RA BR FEW040 BKN070 OVC100 26/23 A2992 RMK AO2 P0002 T02560233 $
KPAH 242353Z 15003KT 8SM -RA FEW043 SCT075 OVC100 27/23 A2991 RMK AO2 RAB42 SLP125 P0000 60000 T02720233 10294 20272 58004 $
KPAH 242253Z 00000KT 10SM SCT100 28/22 A2992 RMK AO2 SLP129 T02780222 $
KPAH 242153Z 23003KT 9SM FEW095 SCT120 28/22 A2996 RMK AO2 SLP141 T02780222 $
KPAH 242053Z 25003KT 10SM CLR 29/22 A2993 RMK AO2 SLP128 T02890217 55019 $
KPAH 241953Z 08006KT 10SM CLR 28/22 A2990 RMK AO2 PRESFR SLP121 T02780222 $
KPAH 241853Z 26006KT 10SM FEW038 28/22 A2995 RMK AO2 LTG DSNT NE SLP138 T02780217 $
KPAH 241753Z 25008KT 10SM BKN065 28/22 A2998 RMK AO2 LTG DSNT NW SLP148 T02780222 10300 20222 53013 $
KPAH 241653Z 25007KT 10SM FEW033 SCT042 29/22 A2994 RMK AO2 SLP135 T02940222 $
KPAH 241553Z VRB04KT 10SM CLR 29/22 A2994 RMK AO2 SLP133 T02940222 $
KPAH 241453Z 24008KT 10SM CLR 28/23 A2994 RMK AO2 SLP134 T02830228 51011 $
KPAH 241353Z 23005KT 10SM BKN065 27/23 A2994 RMK AO2 SLP134 T02670233 $
KPAH 241253Z 00000KT 7SM CLR 24/22 A2993 RMK AO2 SLP130 T02440222 $
KPAH 241153Z 00000KT 5SM BR CLR 22/21 A2991 RMK AO2 SLP123 70007 T02220211 10222 20200 53016 $
KPAH 241053Z 00000KT 6SM BR CLR 21/19 A2989 RMK AO2 SLP119 T02060194 $
KPAH 240953Z AUTO 00000KT 6SM BR CLR 21/19 A2986 RMK AO2 SLP107 T02060194 $
KPAH 240853Z AUTO 00000KT 6SM BR CLR 21/20 A2986 RMK AO2 SLP107 T02110200 53007 $
KPAH 240753Z AUTO 00000KT 6SM BR CLR 21/20 A2984 RMK AO2 SLP101 T02110200 $
KPAH 240653Z AUTO 00000KT 7SM CLR 22/21 A2984 RMK AO2 SLP098 T02170206 $
KPAH 240553Z AUTO 00000KT 8SM CLR 22/21 A2984 RMK AO2 SLP101 60005 T02170206 10278 20217 403000189 51008 $
KPAH 240453Z AUTO 00000KT 9SM SCT037 BKN050 22/21 A2984 RMK AO2 SLP101 T02170211 $
KPAH 240353Z 00000KT 8SM BKN050 22/21 A2984 RMK AO2 SLP099 T02170206 $
KPAH 240153Z VRB03KT 10SM BKN037 OVC046 25/21 A2979 RMK AO2 LTG DSNT NE AND E SLP083 T02500206 $
KPAH 240113Z 20004KT 10SM VCTS FEW048 27/22 A2977 RMK AO2 LTG DSNT N AND NE TS N-NE MOV E T02670222 $
KPAH 240102Z 19005KT 10SM FEW048 26/23 A2976 RMK AO2 LTG DSNT NW-NE T02610228 $
KPAH 232353Z 00000KT 10SM FEW034 SCT047 BKN080 28/24 A2977 RMK AO2 SLP076 60002 T02780244 10300 20256 56003 $
KPAH 232253Z 00000KT 10SM FEW044 BKN055 28/23 A2977 RMK AO2 RAB2155E19 SLP076 P0002 T02830233 $
KPAH 232153Z 22004KT 10SM FEW033 SCT046 BKN070 28/22 A2978 RMK AO2 SLP079 T02830217 $